createdAt,value
2019-05-29T00:00:03.567Z,11.02
2019-05-29T00:02:32.061Z,11.03
2019-05-29T00:05:00.509Z,10.94
2019-05-29T00:07:28.953Z,10.86
2019-05-29T00:09:57.437Z,10.84
2019-05-29T00:12:25.885Z,10.78
2019-05-29T00:14:54.374Z,10.74
2019-05-29T00:17:22.812Z,10.76
2019-05-29T00:19:51.302Z,10.82
2019-05-29T00:22:19.752Z,10.83
2019-05-29T00:24:48.323Z,10.77
2019-05-29T00:27:17.839Z,10.77
2019-05-29T00:29:46.642Z,10.74
2019-05-29T00:32:15.213Z,10.72
2019-05-29T00:34:43.615Z,10.66
2019-05-29T00:37:12.515Z,10.59
2019-05-29T00:39:41.296Z,10.54
2019-05-29T00:42:11.022Z,10.47
2019-05-29T00:44:39.622Z,10.55
2019-05-29T00:47:08.107Z,10.49
2019-05-29T00:49:36.614Z,10.46
2019-05-29T00:52:05.195Z,10.46
2019-05-29T00:54:33.702Z,10.35
2019-05-29T00:57:02.153Z,10.37
2019-05-29T00:59:30.639Z,10.37
2019-05-29T01:01:59.079Z,10.42
2019-05-29T01:04:27.561Z,10.35
2019-05-29T01:06:56.009Z,10.32
2019-05-29T01:09:24.505Z,10.39
2019-05-29T01:11:52.944Z,10.42
2019-05-29T01:14:21.507Z,10.30
2019-05-29T01:16:49.968Z,10.35
2019-05-29T01:19:27.249Z,10.35
2019-05-29T01:21:58.613Z,10.25
2019-05-29T01:24:27.535Z,10.29
2019-05-29T01:26:56.083Z,10.23
2019-05-29T01:29:24.591Z,10.13
2019-05-29T01:31:53.097Z,10.27
2019-05-29T01:34:21.991Z,10.22
2019-05-29T01:36:50.729Z,10.19
2019-05-29T01:39:19.378Z,10.21
2019-05-29T01:41:47.988Z,10.23
2019-05-29T01:44:17.406Z,10.06
2019-05-29T01:46:45.978Z,10.02
2019-05-29T01:49:16.009Z,10.07
2019-05-29T01:51:44.583Z,9.96
2019-05-29T01:54:13.075Z,10.00
2019-05-29T01:56:41.533Z,10.01
2019-05-29T01:59:10.114Z,10.03
2019-05-29T02:01:38.630Z,9.99
2019-05-29T02:04:07.162Z,9.92
2019-05-29T02:06:35.612Z,9.91
2019-05-29T02:09:05.896Z,9.89
2019-05-29T02:11:34.376Z,9.92
2019-05-29T02:14:02.818Z,10.01
2019-05-29T02:16:31.372Z,10.02
2019-05-29T02:18:59.826Z,10.01
2019-05-29T02:21:28.490Z,9.98
2019-05-29T02:23:57.228Z,10.13
2019-05-29T02:26:26.562Z,10.01
2019-05-29T02:28:55.315Z,9.94
2019-05-29T02:31:26.327Z,10.00
2019-05-29T02:33:54.366Z,10.10
2019-05-29T02:36:24.461Z,10.02
2019-05-29T02:38:53.097Z,10.05
2019-05-29T02:41:23.498Z,10.05
2019-05-29T02:43:51.818Z,10.03
2019-05-29T02:46:21.738Z,9.92
2019-05-29T02:48:50.528Z,9.90
2019-05-29T02:51:19.782Z,9.96
2019-05-29T02:53:48.592Z,9.93
2019-05-29T02:56:17.034Z,9.92
2019-05-29T02:58:46.065Z,9.94
2019-05-29T03:01:14.591Z,9.88
2019-05-29T03:03:43.069Z,9.85
2019-05-29T03:06:13.051Z,9.92
2019-05-29T03:08:41.618Z,10.00
2019-05-29T03:11:10.129Z,9.94
2019-05-29T03:13:38.905Z,9.89
2019-05-29T03:16:12.114Z,9.86
2019-05-29T03:18:38.159Z,9.78
2019-05-29T03:21:06.637Z,9.66
2019-05-29T03:23:36.199Z,9.62
2019-05-29T03:26:05.679Z,9.53
2019-05-29T03:28:34.963Z,9.52
2019-05-29T03:31:03.864Z,9.49
2019-05-29T03:33:40.883Z,9.45
2019-05-29T03:36:02.586Z,9.43
2019-05-29T03:38:32.658Z,9.51
2019-05-29T03:41:01.276Z,9.53
2019-05-29T03:43:31.110Z,9.57
2019-05-29T03:45:59.948Z,9.57
2019-05-29T03:48:29.822Z,9.58
2019-05-29T03:50:58.744Z,9.59
2019-05-29T03:53:27.233Z,9.49
2019-05-29T03:55:55.654Z,9.39
2019-05-29T03:58:24.139Z,9.45
2019-05-29T04:00:52.592Z,9.46
2019-05-29T04:03:21.151Z,9.48
2019-05-29T04:05:49.600Z,9.53
2019-05-29T04:08:18.039Z,9.56
2019-05-29T04:10:46.513Z,9.43
2019-05-29T04:13:15.194Z,9.37
2019-05-29T04:15:44.915Z,9.37
2019-05-29T04:18:13.433Z,9.34
2019-05-29T04:20:44.215Z,9.38
2019-05-29T04:23:12.651Z,9.31
2019-05-29T04:25:43.070Z,9.48
2019-05-29T04:28:11.327Z,9.59
2019-05-29T04:30:39.771Z,9.48
2019-05-29T04:33:08.252Z,9.48
2019-05-29T04:35:37.132Z,9.42
2019-05-29T04:38:06.881Z,9.53
2019-05-29T04:40:37.211Z,9.58
2019-05-29T04:43:05.588Z,9.47
2019-05-29T04:45:37.229Z,9.50
2019-05-29T04:48:04.379Z,9.59
2019-05-29T04:50:33.505Z,9.59
2019-05-29T04:53:02.749Z,9.79
2019-05-29T04:55:31.249Z,10.04
2019-05-29T04:57:59.746Z,10.09
2019-05-29T05:00:29.031Z,10.18
2019-05-29T05:02:57.704Z,10.01
2019-05-29T05:05:26.202Z,9.98
2019-05-29T05:07:54.650Z,10.10
2019-05-29T05:10:41.071Z,10.23
2019-05-29T05:13:10.112Z,10.32
2019-05-29T05:15:39.967Z,10.34
2019-05-29T05:18:08.964Z,10.21
2019-05-29T05:20:38.340Z,10.19
2019-05-29T05:23:07.291Z,10.30
2019-05-29T05:25:36.396Z,10.36
2019-05-29T05:28:05.550Z,10.48
2019-05-29T05:30:34.412Z,10.59
2019-05-29T05:33:03.203Z,10.68
2019-05-29T05:35:32.612Z,10.73
2019-05-29T05:38:01.422Z,10.71
2019-05-29T05:40:30.789Z,10.71
2019-05-29T05:42:59.408Z,10.64
2019-05-29T05:45:27.921Z,10.68
2019-05-29T05:47:57.906Z,10.50
2019-05-29T05:50:27.382Z,10.65
2019-05-29T05:52:55.874Z,10.70
2019-05-29T05:55:24.381Z,10.53
2019-05-29T05:57:52.877Z,10.22
2019-05-29T06:00:34.003Z,10.19
2019-05-29T06:03:02.884Z,10.34
2019-05-29T06:05:32.071Z,10.24
2019-05-29T06:08:00.759Z,10.44
2019-05-29T06:10:29.310Z,10.40
2019-05-29T06:12:57.755Z,10.42
2019-05-29T06:15:26.333Z,10.34
2019-05-29T06:18:16.935Z,10.25
2019-05-29T06:20:25.112Z,10.27
2019-05-29T06:22:53.561Z,10.38
2019-05-29T06:25:22.719Z,10.44
2019-05-29T06:27:51.166Z,10.46
2019-05-29T06:30:21.574Z,10.46
2019-05-29T06:32:50.112Z,10.48
2019-05-29T06:35:18.707Z,10.42
2019-05-29T06:37:47.176Z,10.35
2019-05-29T06:40:18.677Z,10.27
2019-05-29T06:42:47.323Z,10.32
2019-05-29T06:45:18.860Z,10.39
2019-05-29T06:47:47.375Z,10.59
2019-05-29T06:50:15.965Z,10.62
2019-05-29T06:52:44.440Z,10.65
2019-05-29T06:55:13.228Z,10.65
2019-05-29T06:57:42.650Z,10.62
2019-05-29T07:00:11.875Z,10.57
2019-05-29T07:02:40.875Z,10.42
2019-05-29T07:05:09.566Z,10.44
2019-05-29T07:07:38.346Z,10.49
2019-05-29T07:10:07.493Z,10.51
2019-05-29T07:12:36.287Z,10.54
2019-05-29T07:15:07.401Z,10.55
2019-05-29T07:17:36.323Z,10.48
2019-05-29T07:20:07.551Z,10.62
2019-05-29T07:22:36.958Z,10.78
2019-05-29T07:25:06.997Z,10.89
2019-05-29T07:27:36.727Z,11.03
2019-05-29T07:30:07.235Z,11.14
2019-05-29T07:32:38.121Z,11.39
2019-05-29T07:35:06.651Z,11.47
2019-05-29T07:37:35.124Z,11.36
2019-05-29T07:40:05.146Z,11.52
2019-05-29T07:42:33.590Z,11.69
2019-05-29T07:45:02.106Z,11.77
2019-05-29T07:47:30.551Z,11.67
2019-05-29T07:49:59.025Z,11.77
2019-05-29T07:52:27.473Z,11.77
2019-05-29T07:54:55.971Z,11.52
2019-05-29T07:57:24.419Z,11.33
2019-05-29T07:59:52.910Z,11.46
2019-05-29T08:02:21.354Z,11.39
2019-05-29T08:04:50.021Z,11.23
2019-05-29T08:07:18.522Z,11.60
2019-05-29T08:09:47.848Z,12.08
2019-05-29T08:12:16.525Z,12.27
2019-05-29T08:14:45.820Z,12.03
2019-05-29T08:17:14.527Z,11.99
2019-05-29T08:20:00.624Z,12.31
2019-05-29T08:22:13.166Z,12.28
2019-05-29T08:24:42.630Z,12.06
2019-05-29T08:27:11.461Z,11.65
2019-05-29T08:29:40.575Z,11.63
2019-05-29T08:32:09.087Z,11.84
2019-05-29T08:34:37.523Z,12.36
2019-05-29T08:37:07.453Z,12.48
2019-05-29T08:39:37.091Z,12.56
2019-05-29T08:42:22.561Z,13.02
2019-05-29T08:44:36.081Z,13.82
2019-05-29T08:47:10.492Z,13.42
2019-05-29T08:49:34.799Z,13.19
2019-05-29T08:52:11.959Z,13.20
2019-05-29T08:54:33.553Z,12.93
2019-05-29T08:57:01.993Z,12.64
2019-05-29T08:59:30.435Z,12.59
2019-05-29T09:01:58.941Z,12.77
2019-05-29T09:04:27.525Z,12.72
2019-05-29T09:06:56.096Z,12.58
2019-05-29T09:09:24.527Z,12.39
2019-05-29T09:11:53.797Z,12.47
2019-05-29T09:14:22.583Z,12.54
2019-05-29T09:16:51.029Z,12.57
2019-05-29T09:19:21.069Z,12.93
2019-05-29T09:21:49.754Z,13.54
2019-05-29T09:24:19.403Z,14.00
2019-05-29T09:26:48.264Z,13.91
2019-05-29T09:29:18.702Z,13.63
2019-05-29T09:31:46.967Z,13.71
2019-05-29T09:34:16.609Z,13.85
2019-05-29T09:36:48.838Z,13.51
2019-05-29T09:39:18.427Z,13.36
2019-05-29T09:41:47.515Z,13.84
2019-05-29T09:44:31.179Z,14.29
2019-05-29T09:46:46.206Z,14.41
2019-05-29T09:49:16.646Z,14.49
2019-05-29T09:51:44.898Z,14.93
2019-05-29T09:54:13.511Z,14.96
2019-05-29T09:56:41.940Z,15.08
2019-05-29T09:59:10.472Z,14.59
2019-05-29T10:01:39.053Z,13.85
2019-05-29T10:04:07.575Z,13.43
2019-05-29T10:06:36.124Z,13.42
2019-05-29T10:09:07.755Z,13.52
2019-05-29T10:11:36.279Z,14.23
2019-05-29T10:14:05.714Z,14.44
2019-05-29T10:16:34.188Z,14.54
2019-05-29T10:19:03.258Z,14.09
2019-05-29T10:21:40.188Z,14.70
2019-05-29T10:24:03.675Z,14.69
2019-05-29T10:26:32.364Z,14.37
2019-05-29T10:29:08.264Z,15.00
2019-05-29T10:31:31.043Z,15.63
2019-05-29T10:33:59.506Z,15.82
2019-05-29T10:36:28.273Z,15.57
2019-05-29T10:38:56.976Z,15.73
2019-05-29T10:41:25.468Z,15.21
2019-05-29T10:43:53.929Z,14.54
2019-05-29T10:46:22.419Z,14.19
2019-05-29T10:48:54.202Z,14.02
2019-05-29T10:51:21.125Z,14.20
2019-05-29T10:53:52.136Z,14.07
2019-05-29T10:56:21.215Z,14.70
2019-05-29T10:58:56.160Z,14.59
2019-05-29T11:01:20.371Z,14.79
2019-05-29T11:03:49.355Z,15.45
2019-05-29T11:06:18.003Z,15.51
2019-05-29T11:08:47.884Z,15.50
2019-05-29T11:11:16.637Z,15.53
2019-05-29T11:13:46.603Z,15.27
2019-05-29T11:16:15.327Z,15.19
2019-05-29T11:18:43.783Z,15.44
2019-05-29T11:21:12.289Z,15.65
2019-05-29T11:23:40.823Z,15.70
2019-05-29T11:26:09.392Z,15.85
2019-05-29T11:28:37.852Z,15.05
2019-05-29T11:31:06.593Z,14.52
2019-05-29T11:33:35.039Z,14.25
2019-05-29T11:36:12.263Z,14.17
2019-05-29T11:38:33.858Z,14.26
2019-05-29T11:41:23.587Z,14.29
2019-05-29T11:43:32.710Z,14.32
2019-05-29T11:46:01.991Z,14.26
2019-05-29T11:48:30.659Z,14.20
2019-05-29T11:50:59.098Z,15.14
2019-05-29T11:53:27.596Z,15.50
2019-05-29T11:56:02.059Z,15.63
2019-05-29T11:58:31.766Z,15.71
2019-05-29T12:01:01.254Z,15.69
2019-05-29T12:03:30.103Z,15.52
2019-05-29T12:05:59.401Z,15.59
2019-05-29T12:08:28.105Z,14.80
2019-05-29T12:10:57.368Z,14.32
2019-05-29T12:13:26.067Z,14.32
2019-05-29T12:15:55.798Z,14.74
2019-05-29T12:18:25.014Z,15.14
2019-05-29T12:20:53.985Z,15.60
2019-05-29T12:23:26.169Z,14.97
2019-05-29T12:26:12.883Z,14.63
2019-05-29T12:28:23.098Z,14.74
2019-05-29T12:30:53.324Z,14.60
2019-05-29T12:33:21.837Z,14.74
2019-05-29T12:35:50.471Z,15.33
2019-05-29T12:38:18.875Z,14.94
2019-05-29T12:40:47.397Z,14.69
2019-05-29T12:43:26.364Z,14.45
2019-05-29T12:45:46.208Z,14.75
2019-05-29T12:48:15.848Z,15.43
2019-05-29T12:50:44.923Z,15.72
2019-05-29T12:53:28.703Z,15.87
2019-05-29T12:55:43.683Z,16.43
2019-05-29T12:58:12.188Z,16.25
2019-05-29T13:00:40.783Z,15.97
2019-05-29T13:03:09.277Z,16.46
2019-05-29T13:05:37.787Z,16.69
2019-05-29T13:08:06.429Z,16.48
2019-05-29T13:10:34.958Z,16.49
2019-05-29T13:13:08.466Z,16.53
2019-05-29T13:15:33.730Z,16.66
2019-05-29T13:18:06.347Z,16.43
2019-05-29T13:20:32.414Z,16.37
2019-05-29T13:23:02.729Z,15.66
2019-05-29T13:25:31.158Z,15.31
2019-05-29T13:28:01.176Z,15.65
2019-05-29T13:30:29.969Z,16.01
2019-05-29T13:33:02.173Z,16.31
2019-05-29T13:35:28.859Z,16.39
2019-05-29T13:37:57.305Z,16.06
2019-05-29T13:40:25.951Z,15.84
2019-05-29T13:42:54.410Z,15.82
2019-05-29T13:45:22.908Z,15.65
2019-05-29T13:47:51.358Z,15.95
2019-05-29T13:50:20.949Z,16.37
2019-05-29T13:52:50.309Z,16.08
2019-05-29T13:55:18.905Z,15.79
2019-05-29T13:57:47.404Z,15.70
2019-05-29T14:00:34.955Z,15.84
2019-05-29T14:02:48.797Z,15.43
2019-05-29T14:05:17.994Z,15.25
2019-05-29T14:07:46.495Z,15.21
2019-05-29T14:10:15.293Z,15.15
2019-05-29T14:12:43.749Z,15.40
2019-05-29T14:15:13.389Z,15.52
2019-05-29T14:17:41.889Z,15.76
2019-05-29T14:20:11.197Z,16.04
2019-05-29T14:22:39.716Z,16.11
2019-05-29T14:25:09.598Z,16.08
2019-05-29T14:27:38.149Z,16.16
2019-05-29T14:30:14.109Z,15.89
2019-05-29T14:32:42.696Z,15.44
2019-05-29T14:35:13.249Z,15.10
2019-05-29T14:37:41.627Z,15.03
2019-05-29T14:40:12.059Z,15.20
2019-05-29T14:42:40.985Z,15.03
2019-05-29T14:45:10.706Z,14.88
2019-05-29T14:47:40.561Z,14.80
2019-05-29T14:50:11.140Z,14.81
2019-05-29T14:52:40.426Z,14.88
2019-05-29T14:55:14.121Z,15.47
2019-05-29T14:57:39.659Z,15.91
2019-05-29T15:00:22.829Z,16.26
2019-05-29T15:02:42.979Z,16.07
2019-05-29T15:05:12.690Z,15.69
2019-05-29T15:07:42.202Z,15.43
2019-05-29T15:10:24.024Z,15.44
2019-05-29T15:12:41.795Z,15.79
2019-05-29T15:15:15.641Z,16.01
2019-05-29T15:17:41.635Z,16.26
2019-05-29T15:20:12.590Z,16.26
2019-05-29T15:22:41.731Z,16.23
2019-05-29T15:25:19.970Z,16.13
2019-05-29T15:27:41.148Z,16.22
2019-05-29T15:30:11.566Z,16.23
2019-05-29T15:32:40.996Z,15.97
2019-05-29T15:35:14.459Z,15.98
2019-05-29T15:37:40.978Z,16.05
2019-05-29T15:40:11.060Z,16.07
2019-05-29T15:42:39.945Z,15.97
2019-05-29T15:45:10.251Z,15.97
2019-05-29T15:47:38.734Z,16.02
2019-05-29T15:50:09.166Z,15.97
2019-05-29T15:52:38.055Z,16.02
2019-05-29T15:55:27.455Z,15.91
2019-05-29T15:57:40.499Z,15.93
2019-05-29T16:00:11.396Z,15.92
2019-05-29T16:02:40.204Z,15.90
2019-05-29T16:05:10.921Z,15.89
2019-05-29T16:07:39.667Z,15.80
2019-05-29T16:10:13.095Z,15.75
2019-05-29T16:12:39.748Z,15.61
2019-05-29T16:15:09.313Z,15.72
2019-05-29T16:17:37.771Z,15.84
2019-05-29T16:20:10.311Z,15.88
2019-05-29T16:22:39.130Z,15.79
2019-05-29T16:25:09.303Z,15.80
2019-05-29T16:27:37.763Z,15.64
2019-05-29T16:30:08.742Z,15.61
2019-05-29T16:32:37.242Z,15.57
2019-05-29T16:35:09.098Z,15.58
2019-05-29T16:37:37.676Z,15.52
2019-05-29T16:40:09.187Z,15.47
2019-05-29T16:42:37.691Z,15.46
2019-05-29T16:45:08.870Z,15.39
2019-05-29T16:47:37.432Z,15.39
2019-05-29T16:50:09.863Z,15.46
2019-05-29T16:52:38.725Z,15.53
2019-05-29T16:55:08.244Z,15.46
2019-05-29T16:57:36.841Z,15.44
2019-05-29T17:00:09.910Z,15.40
2019-05-29T17:02:39.211Z,15.37
2019-05-29T17:05:08.257Z,15.41
2019-05-29T17:07:36.853Z,15.42
2019-05-29T17:10:09.593Z,15.39
2019-05-29T17:12:38.107Z,15.41
2019-05-29T17:15:15.009Z,15.36
2019-05-29T17:17:43.637Z,15.37
2019-05-29T17:20:14.560Z,15.41
2019-05-29T17:22:43.241Z,15.35
2019-05-29T17:25:12.125Z,15.30
2019-05-29T17:27:40.694Z,15.26
2019-05-29T17:30:11.281Z,15.26
2019-05-29T17:32:39.805Z,15.24
2019-05-29T17:35:09.787Z,15.16
2019-05-29T17:37:38.480Z,15.14
2019-05-29T17:40:08.177Z,15.09
2019-05-29T17:42:36.705Z,15.07
2019-05-29T17:45:11.341Z,15.01
2019-05-29T17:47:40.341Z,14.89
2019-05-29T17:50:10.109Z,14.82
2019-05-29T17:52:38.747Z,14.72
2019-05-29T17:55:07.635Z,14.65
2019-05-29T17:57:36.152Z,14.60
2019-05-29T18:00:10.504Z,14.58
2019-05-29T18:02:51.271Z,14.51
2019-05-29T18:05:10.508Z,14.50
2019-05-29T18:07:38.970Z,14.40
2019-05-29T18:10:08.572Z,14.43
2019-05-29T18:12:37.038Z,14.43
2019-05-29T18:15:07.640Z,14.31
2019-05-29T18:17:36.092Z,14.26
2019-05-29T18:20:09.206Z,14.22
2019-05-29T18:22:37.674Z,14.19
2019-05-29T18:25:07.622Z,14.16
2019-05-29T18:27:36.522Z,14.11
2019-05-29T18:30:07.416Z,14.08
2019-05-29T18:32:37.046Z,14.08
2019-05-29T18:35:08.814Z,14.16
2019-05-29T18:37:37.262Z,14.15
2019-05-29T18:40:09.937Z,14.04
2019-05-29T18:42:37.091Z,14.01
2019-05-29T18:45:19.600Z,13.90
2019-05-29T18:47:38.479Z,13.80
2019-05-29T18:50:11.001Z,13.69
2019-05-29T18:52:39.494Z,13.61
2019-05-29T18:55:08.993Z,13.62
2019-05-29T18:57:37.515Z,13.63
2019-05-29T19:00:11.417Z,13.54
2019-05-29T19:02:39.922Z,13.43
2019-05-29T19:05:09.320Z,13.37
2019-05-29T19:07:37.889Z,13.32
2019-05-29T19:10:07.482Z,13.31
2019-05-29T19:12:36.324Z,13.26
2019-05-29T19:15:08.691Z,13.16
2019-05-29T19:17:37.429Z,13.10
2019-05-29T19:20:08.937Z,13.09
2019-05-29T19:22:37.511Z,13.01
2019-05-29T19:25:07.413Z,13.01
2019-05-29T19:27:41.553Z,13.00
2019-05-29T19:30:09.224Z,12.95
2019-05-29T19:32:37.819Z,13.01
2019-05-29T19:35:08.278Z,13.01
2019-05-29T19:37:36.813Z,13.04
2019-05-29T19:40:07.555Z,13.00
2019-05-29T19:42:36.012Z,12.96
2019-05-29T19:45:09.623Z,12.97
2019-05-29T19:47:38.079Z,12.94
2019-05-29T19:50:11.161Z,12.88
2019-05-29T19:52:38.636Z,12.87
2019-05-29T19:55:08.311Z,12.85
2019-05-29T19:57:52.466Z,12.77
2019-05-29T20:00:09.602Z,12.73
2019-05-29T20:02:39.205Z,12.72
2019-05-29T20:05:08.555Z,12.70
2019-05-29T20:07:37.538Z,12.64
2019-05-29T20:10:08.482Z,12.53
2019-05-29T20:12:38.086Z,12.51
2019-05-29T20:15:07.934Z,12.50
2019-05-29T20:17:36.397Z,12.43
2019-05-29T20:20:07.427Z,12.32
2019-05-29T20:22:36.935Z,12.22
2019-05-29T20:25:07.590Z,12.18
2019-05-29T20:27:36.397Z,12.15
2019-05-29T20:30:11.322Z,12.08
2019-05-29T20:32:39.816Z,12.08
2019-05-29T20:35:09.352Z,12.05
2019-05-29T20:37:38.363Z,11.97
2019-05-29T20:40:08.511Z,11.88
2019-05-29T20:42:37.023Z,11.83
2019-05-29T20:45:07.735Z,11.80
2019-05-29T20:47:36.241Z,11.75
2019-05-29T20:50:07.307Z,11.73
2019-05-29T20:52:37.185Z,11.68
2019-05-29T20:55:06.656Z,11.63
2019-05-29T20:57:35.974Z,11.62
2019-05-29T21:00:07.621Z,11.56
2019-05-29T21:02:36.162Z,11.54
2019-05-29T21:05:07.266Z,11.54
2019-05-29T21:07:36.624Z,11.57
2019-05-29T21:10:06.424Z,11.49
2019-05-29T21:12:35.241Z,11.50
2019-05-29T21:15:04.883Z,11.50
2019-05-29T21:17:33.733Z,11.38
2019-05-29T21:20:02.496Z,11.34
2019-05-29T21:22:30.953Z,11.30
2019-05-29T21:25:06.419Z,11.28
2019-05-29T21:27:29.759Z,11.21
2019-05-29T21:29:58.260Z,11.22
2019-05-29T21:32:26.796Z,11.20
2019-05-29T21:34:55.284Z,11.19
2019-05-29T21:37:23.744Z,11.15
2019-05-29T21:39:52.243Z,11.07
2019-05-29T21:42:20.696Z,10.98
2019-05-29T21:44:49.206Z,10.98
2019-05-29T21:47:17.729Z,11.01
2019-05-29T21:49:47.484Z,10.97
2019-05-29T21:52:16.150Z,10.96
2019-05-29T21:54:45.689Z,10.99
2019-05-29T21:57:14.609Z,10.98
2019-05-29T21:59:43.817Z,10.95
2019-05-29T22:02:12.755Z,10.94
2019-05-29T22:04:42.248Z,10.98
2019-05-29T22:07:11.222Z,11.02
2019-05-29T22:09:39.675Z,11.13
2019-05-29T22:12:08.174Z,11.21
2019-05-29T22:14:36.777Z,11.16
2019-05-29T22:17:05.349Z,10.99
2019-05-29T22:19:33.883Z,10.98
2019-05-29T22:22:02.420Z,10.95
2019-05-29T22:24:30.869Z,11.03
2019-05-29T22:26:59.414Z,11.11
2019-05-29T22:29:27.839Z,11.28
2019-05-29T22:31:57.493Z,11.39
2019-05-29T22:34:26.380Z,11.48
2019-05-29T22:36:55.489Z,11.65
2019-05-29T22:39:24.076Z,11.67
2019-05-29T22:41:53.448Z,11.55
2019-05-29T22:44:21.985Z,11.42
2019-05-29T22:46:51.565Z,11.24
2019-05-29T22:49:20.330Z,11.14
2019-05-29T22:51:48.786Z,11.08
2019-05-29T22:54:17.263Z,10.98
2019-05-29T22:56:45.722Z,10.96
2019-05-29T22:59:14.218Z,10.83
2019-05-29T23:01:42.697Z,10.85
2019-05-29T23:04:11.265Z,10.75
2019-05-29T23:06:39.724Z,10.73
2019-05-29T23:09:08.364Z,10.77
2019-05-29T23:11:36.900Z,10.82
2019-05-29T23:14:05.527Z,10.91
2019-05-29T23:16:34.128Z,11.01
2019-05-29T23:19:02.837Z,11.03
2019-05-29T23:21:31.386Z,11.17
2019-05-29T23:23:59.835Z,11.39
2019-05-29T23:26:28.334Z,11.28
2019-05-29T23:28:56.885Z,11.13
2019-05-29T23:31:25.381Z,11.02
2019-05-29T23:33:54.787Z,10.94
2019-05-29T23:36:23.501Z,10.87
2019-05-29T23:38:53.145Z,10.79
2019-05-29T23:41:21.867Z,10.76
2019-05-29T23:43:50.330Z,10.76
2019-05-29T23:46:18.839Z,10.69
2019-05-29T23:48:47.287Z,10.68
2019-05-29T23:51:15.863Z,10.61
2019-05-29T23:53:44.313Z,10.48
2019-05-29T23:56:12.800Z,10.41
2019-05-29T23:58:41.263Z,10.40
